Time;durP1;ratioP1;P1;durP2;ratioP2;P2;SDS_P1;SDS_P2;PMS_P1;PMS_P2;Temp;Humidity;BMP_temperature;BMP_pressure;BME280_temperature;BME280_humidity;BME280_pressure;Samples;Min_cycle;Max_cycle;Signal;HPM_P1;HPM_P2
2023/01/20 00:00:38;;;;;;;4.23;3.80;;;0.70;99.90;;;;;;5035091;28;20041;-75
2023/01/20 00:03:03;;;;;;;5.37;2.77;;;0.70;99.90;;;;;;5024095;28;20045;-75
2023/01/20 00:05:29;;;;;;;2.10;1.90;;;0.70;99.90;;;;;;4969701;28;20059;-75
2023/01/20 00:07:54;;;;;;;3.37;2.50;;;0.70;99.90;;;;;;4929403;29;20667;-75
2023/01/20 00:10:20;;;;;;;5.30;2.90;;;0.70;99.90;;;;;;4934475;29;20051;-75
2023/01/20 00:12:46;;;;;;;7.83;3.27;;;0.60;99.90;;;;;;4930321;29;20117;-75
2023/01/20 00:15:11;;;;;;;3.67;2.33;;;0.60;99.90;;;;;;4932057;28;20758;-75
2023/01/20 00:17:37;;;;;;;10.13;2.80;;;0.60;99.90;;;;;;4941671;29;20451;-75
2023/01/20 00:20:04;;;;;;;3.83;3.10;;;0.50;99.90;;;;;;4943754;28;20047;-75
2023/01/20 00:22:30;;;;;;;3.47;2.73;;;0.40;99.90;;;;;;4929011;28;20075;-75
2023/01/20 00:24:55;;;;;;;5.20;2.43;;;0.40;99.90;;;;;;4937788;29;20383;-75
2023/01/20 00:27:21;;;;;;;3.90;3.40;;;0.40;99.90;;;;;;4932564;28;20067;-75
2023/01/20 00:29:47;;;;;;;4.33;2.63;;;0.40;99.90;;;;;;4941381;28;20118;-75
2023/01/20 00:32:12;;;;;;;3.53;3.23;;;0.30;99.90;;;;;;4942775;29;20042;-76
2023/01/20 00:34:38;;;;;;;4.30;3.13;;;0.30;99.90;;;;;;4934528;29;20040;-76
2023/01/20 00:37:04;;;;;;;3.43;2.77;;;0.30;99.90;;;;;;4929586;28;20147;-75
2023/01/20 00:39:29;;;;;;;7.33;3.17;;;0.30;99.90;;;;;;4933249;28;20371;-75
2023/01/20 00:41:55;;;;;;;5.77;3.07;;;0.20;99.90;;;;;;4923498;28;20285;-75
2023/01/20 00:44:20;;;;;;;3.50;3.20;;;0.20;99.90;;;;;;4923131;29;20043;-75
2023/01/20 00:46:46;;;;;;;4.97;3.93;;;0.20;99.90;;;;;;4929120;28;20039;-75
2023/01/20 00:49:12;;;;;;;3.93;2.97;;;0.20;99.90;;;;;;4944646;28;20047;-75
2023/01/20 00:51:37;;;;;;;4.40;3.30;;;0.10;99.90;;;;;;4944244;28;20035;-76
2023/01/20 00:54:03;;;;;;;8.63;5.50;;;0.10;99.90;;;;;;4935331;28;20055;-75
2023/01/20 00:56:29;;;;;;;3.13;2.10;;;0.10;99.90;;;;;;4944928;29;20097;-75
2023/01/20 00:58:54;;;;;;;4.60;3.00;;;0.10;99.90;;;;;;4944601;29;20489;-75
2023/01/20 01:01:22;;;;;;;4.40;3.43;;;0.10;99.90;;;;;;4946328;28;20044;-75
2023/01/20 01:03:47;;;;;;;5.63;2.23;;;0.10;99.90;;;;;;4945636;29;20090;-75
2023/01/20 01:06:15;;;;;;;4.53;2.83;;;0.00;99.90;;;;;;4961682;28;20043;-75
2023/01/20 01:08:42;;;;;;;3.03;2.40;;;0.00;99.90;;;;;;4963160;28;20089;-75
2023/01/20 01:11:09;;;;;;;4.47;2.87;;;-0.10;99.90;;;;;;4945892;28;20035;-75
2023/01/20 01:13:34;;;;;;;10.03;3.93;;;-0.10;99.90;;;;;;4945818;29;20047;-75
2023/01/20 01:16:00;;;;;;;6.90;3.23;;;-0.10;99.90;;;;;;4944899;29;20104;-75
2023/01/20 01:18:26;;;;;;;3.60;3.00;;;-0.10;99.90;;;;;;4945667;29;20040;-75
2023/01/20 01:20:51;;;;;;;5.20;2.43;;;-0.20;99.90;;;;;;4945535;28;20523;-75
2023/01/20 01:23:17;;;;;;;6.10;3.40;;;-0.20;99.90;;;;;;4928506;28;20055;-75
2023/01/20 01:25:43;;;;;;;3.43;3.07;;;-0.20;99.90;;;;;;4945170;29;20390;-75
2023/01/20 01:28:08;;;;;;;5.07;3.83;;;-0.20;99.90;;;;;;4945950;29;20047;-75
2023/01/20 01:30:34;;;;;;;4.80;3.53;;;-0.20;99.90;;;;;;4945124;29;20040;-75
2023/01/20 01:32:59;;;;;;;7.40;3.80;;;-0.20;99.90;;;;;;4944974;29;20529;-75
2023/01/20 01:35:25;;;;;;;3.47;3.17;;;-0.30;99.90;;;;;;4945621;29;20057;-75
2023/01/20 01:37:51;;;;;;;3.77;3.00;;;-0.30;99.90;;;;;;4945260;28;20035;-75
2023/01/20 01:40:17;;;;;;;7.33;4.17;;;-0.30;99.90;;;;;;4945267;29;20564;-75
2023/01/20 01:42:42;;;;;;;5.43;3.57;;;-0.30;99.90;;;;;;4934948;28;20757;-75
2023/01/20 01:45:11;;;;;;;5.43;3.83;;;-0.30;99.90;;;;;;4944312;29;20040;-75
2023/01/20 01:47:44;;;;;;;6.23;3.30;;;-0.30;99.90;;;;;;4945016;29;20110;-75
2023/01/20 01:50:16;;;;;;;5.07;3.40;;;-0.30;99.90;;;;;;4945250;29;20051;-75
2023/01/20 01:52:45;;;;;;;5.22;4.32;;;-0.30;99.90;;;;;;4943981;28;20047;-75
2023/01/20 01:55:13;;;;;;;5.17;3.83;;;-0.40;99.90;;;;;;4945148;28;20466;-75
2023/01/20 01:57:39;;;;;;;5.60;3.27;;;-0.40;99.90;;;;;;4945085;28;20058;-75
2023/01/20 02:00:05;;;;;;;11.17;4.73;;;-0.40;99.90;;;;;;4944647;28;20039;-75
2023/01/20 02:02:32;;;;;;;7.10;2.87;;;-0.40;99.90;;;;;;4944258;29;20092;-75
2023/01/20 02:04:57;;;;;;;3.07;2.33;;;-0.40;99.90;;;;;;4944442;28;20126;-75
2023/01/20 02:07:23;;;;;;;2.20;2.00;;;-0.40;99.90;;;;;;4945365;28;20453;-75
2023/01/20 02:09:49;;;;;;;1.90;1.33;;;-0.30;99.90;;;;;;4944642;29;20070;-75
2023/01/20 02:12:17;;;;;;;3.20;1.30;;;-0.20;99.90;;;;;;4943690;28;20074;-75
2023/01/20 02:14:56;;;;;;;3.13;2.30;;;-0.20;99.90;;;;;;4940595;28;20035;-75
2023/01/20 02:17:30;;;;;;;2.30;1.63;;;-0.10;99.90;;;;;;4942823;29;20052;-75
2023/01/20 02:20:41;;;;;;;7.73;2.73;;;-0.10;99.90;;;;;;4932721;29;21013;-75
2023/01/20 02:23:25;;;;;;;2.00;1.67;;;0.00;99.90;;;;;;4952298;28;20059;-75
2023/01/20 02:26:08;;;;;;;4.87;2.57;;;0.00;99.90;;;;;;4937264;29;20079;-75
2023/01/20 02:29:12;;;;;;;2.30;1.40;;;0.00;99.90;;;;;;4938916;28;20040;-75
2023/01/20 02:32:16;;;;;;;1.67;1.30;;;0.00;99.90;;;;;;4884025;29;20051;-75
2023/01/20 02:35:07;;;;;;;1.90;1.50;;;0.00;99.90;;;;;;4924894;29;20127;-75
2023/01/20 02:37:45;;;;;;;4.47;2.43;;;-0.10;99.90;;;;;;4934505;29;20483;-75
2023/01/20 02:40:45;;;;;;;1.80;1.70;;;0.00;99.90;;;;;;4931285;29;20139;-75
2023/01/20 02:43:45;;;;;;;3.63;1.77;;;-0.10;99.90;;;;;;4929463;28;20059;-75
2023/01/20 02:46:23;;;;;;;4.40;2.30;;;-0.10;99.90;;;;;;4909618;29;20063;-75
2023/01/20 02:48:58;;;;;;;5.17;2.80;;;0.00;99.90;;;;;;4944216;28;20075;-75
2023/01/20 02:51:37;;;;;;;5.13;3.57;;;0.00;99.90;;;;;;4944557;28;20054;-75
2023/01/20 02:54:07;;;;;;;2.87;2.60;;;0.00;99.90;;;;;;4944468;29;20039;-75
2023/01/20 02:56:35;;;;;;;4.90;3.33;;;0.00;99.90;;;;;;4919475;28;20075;-75
2023/01/20 02:59:07;;;;;;;3.43;2.60;;;0.00;99.90;;;;;;4925256;29;20038;-75
2023/01/20 03:01:51;;;;;;;5.22;2.53;;;0.00;99.90;;;;;;4939421;29;20070;-75
2023/01/20 03:04:22;;;;;;;3.93;3.03;;;0.00;99.90;;;;;;4931310;29;20044;-75
2023/01/20 03:06:52;;;;;;;4.67;3.50;;;0.00;99.90;;;;;;4961422;28;20058;-75
2023/01/20 03:09:23;;;;;;;7.80;4.63;;;0.00;99.90;;;;;;4956267;28;20059;-75
2023/01/20 03:12:00;;;;;;;4.60;2.70;;;-0.10;99.90;;;;;;4953633;28;20051;-75
2023/01/20 03:14:26;;;;;;;4.80;3.67;;;0.00;99.90;;;;;;4952125;28;20388;-75
2023/01/20 03:16:52;;;;;;;4.57;2.70;;;0.00;99.90;;;;;;4962981;28;20058;-75
2023/01/20 03:19:18;;;;;;;3.30;2.50;;;-0.10;99.90;;;;;;4963254;28;20042;-75
2023/01/20 03:21:44;;;;;;;3.30;3.00;;;-0.10;99.90;;;;;;4945503;28;20104;-75
2023/01/20 03:24:10;;;;;;;10.40;4.77;;;-0.10;99.90;;;;;;4963272;28;20046;-75
2023/01/20 03:26:37;;;;;;;4.37;3.97;;;-0.10;99.90;;;;;;4962087;28;20078;-75
2023/01/20 03:29:07;;;;;;;6.93;6.23;;;-0.10;99.90;;;;;;4962566;28;20039;-75
2023/01/20 03:31:46;;;;;;;11.17;4.77;;;-0.10;99.90;;;;;;4963677;28;20045;-75
2023/01/20 03:34:16;;;;;;;6.17;3.20;;;0.00;99.90;;;;;;4945571;28;20074;-75
2023/01/20 03:36:43;;;;;;;5.93;4.00;;;0.00;99.90;;;;;;4962571;28;20314;-75
2023/01/20 03:39:09;;;;;;;7.07;5.47;;;0.00;99.90;;;;;;4958562;28;20542;-75
2023/01/20 03:41:57;;;;;;;7.63;6.83;;;0.00;99.90;;;;;;4911984;28;20047;-75
2023/01/20 03:44:56;;;;;;;7.23;4.93;;;0.00;99.90;;;;;;4960593;28;20685;-75
2023/01/20 03:47:25;;;;;;;5.27;4.30;;;0.00;99.90;;;;;;4963000;28;20047;-75
2023/01/20 03:50:08;;;;;;;10.53;5.37;;;0.00;99.90;;;;;;4945795;28;20086;-75
2023/01/20 03:52:57;;;;;;;6.83;3.90;;;0.00;99.90;;;;;;4962872;28;20046;-75
2023/01/20 03:55:33;;;;;;;6.57;3.83;;;-0.10;99.90;;;;;;4965521;28;20120;-75
2023/01/20 03:58:12;;;;;;;9.13;4.30;;;0.00;99.90;;;;;;4962190;28;20050;-75
2023/01/20 04:00:46;;;;;;;10.77;4.53;;;-0.10;99.90;;;;;;4961645;28;20073;-75
2023/01/20 04:03:18;;;;;;;6.87;4.77;;;-0.10;99.90;;;;;;4940226;29;20047;-75
2023/01/20 04:05:45;;;;;;;8.68;4.78;;;-0.10;99.90;;;;;;4942669;29;20555;-76
2023/01/20 04:08:15;;;;;;;4.83;3.70;;;-0.10;99.90;;;;;;4954335;28;20112;-75
2023/01/20 04:10:43;;;;;;;6.53;4.43;;;-0.20;99.90;;;;;;4944502;28;20042;-75
2023/01/20 04:13:09;;;;;;;17.27;5.43;;;-0.20;99.90;;;;;;4943349;28;20131;-75
2023/01/20 04:15:39;;;;;;;6.20;4.13;;;-0.30;99.90;;;;;;4958397;28;20118;-75
2023/01/20 04:18:11;;;;;;;7.57;3.87;;;-0.30;99.90;;;;;;4962896;28;20043;-75
2023/01/20 04:20:37;;;;;;;;;;;-0.30;99.90;;;;;;4961965;28;20723;-75
2023/01/20 04:23:05;;;;;;;7.13;4.90;;;-0.30;99.90;;;;;;4962416;28;19922;-75
2023/01/20 04:25:31;;;;;;;4.80;3.93;;;-0.30;99.90;;;;;;4963159;28;20675;-75
2023/01/20 04:27:57;;;;;;;9.20;4.70;;;-0.30;99.90;;;;;;4957739;28;20054;-75
2023/01/20 04:30:23;;;;;;;8.43;5.57;;;-0.30;99.90;;;;;;4961391;28;20039;-75
2023/01/20 04:32:48;;;;;;;8.50;5.63;;;-0.30;99.90;;;;;;4961849;28;20633;-75
2023/01/20 04:35:16;;;;;;;6.60;4.50;;;-0.30;99.90;;;;;;4961651;28;20394;-75
2023/01/20 04:37:42;;;;;;;5.83;5.27;;;-0.40;99.90;;;;;;4961567;28;20081;-75
2023/01/20 04:40:09;;;;;;;6.37;4.03;;;-0.40;99.90;;;;;;4960611;28;20089;-75
2023/01/20 04:42:35;;;;;;;8.93;6.00;;;-0.40;99.90;;;;;;4942969;28;20043;-75
2023/01/20 04:45:01;;;;;;;5.90;4.57;;;-0.50;99.90;;;;;;4946965;28;20047;-75
2023/01/20 04:47:30;;;;;;;7.30;5.30;;;-0.50;99.90;;;;;;4961830;28;20046;-75
2023/01/20 04:49:55;;;;;;;10.23;6.53;;;-0.50;99.90;;;;;;4956542;28;20048;-75
2023/01/20 04:52:21;;;;;;;10.63;6.30;;;-0.50;99.90;;;;;;4942960;28;20050;-75
2023/01/20 04:54:46;;;;;;;11.93;7.03;;;-0.50;99.90;;;;;;4942375;28;20555;-75
2023/01/20 04:57:12;;;;;;;11.07;7.07;;;-0.40;99.90;;;;;;4947112;28;20030;-75
2023/01/20 04:59:38;;;;;;;8.43;5.73;;;-0.50;99.90;;;;;;4959276;28;20043;-75
2023/01/20 05:02:03;;;;;;;13.43;8.60;;;-0.50;99.90;;;;;;4961901;28;20679;-75
2023/01/20 05:04:29;;;;;;;11.53;7.27;;;-0.40;99.90;;;;;;4961600;28;20072;-75
2023/01/20 05:06:54;;;;;;;11.67;7.20;;;-0.40;99.90;;;;;;4961628;28;20051;-75
2023/01/20 05:09:20;;;;;;;13.37;8.47;;;-0.40;99.90;;;;;;4961642;28;20185;-75
2023/01/20 05:11:45;;;;;;;13.77;9.40;;;-0.40;99.90;;;;;;4961115;28;20081;-75
2023/01/20 05:14:12;;;;;;;12.27;9.07;;;-0.40;99.90;;;;;;4960801;28;20126;-75
2023/01/20 05:16:37;;;;;;;12.43;8.27;;;-0.40;99.90;;;;;;4961521;28;20496;-75
2023/01/20 05:19:03;;;;;;;16.97;9.67;;;-0.40;99.90;;;;;;4962300;28;20046;-75
2023/01/20 05:21:29;;;;;;;14.10;10.43;;;-0.40;99.90;;;;;;4961577;28;20458;-75
2023/01/20 05:23:55;;;;;;;16.53;9.07;;;-0.40;99.90;;;;;;4961321;28;20047;-75
2023/01/20 05:26:22;;;;;;;16.77;9.80;;;-0.30;99.90;;;;;;4943857;28;20035;-75
2023/01/20 05:28:48;;;;;;;15.53;9.17;;;-0.30;99.90;;;;;;4941524;28;20113;-75
2023/01/20 05:31:14;;;;;;;14.93;9.37;;;-0.30;99.90;;;;;;4950286;28;20529;-75
2023/01/20 05:33:40;;;;;;;17.73;11.30;;;-0.30;99.90;;;;;;4962841;28;20043;-75
2023/01/20 05:36:06;;;;;;;16.43;10.67;;;-0.20;99.90;;;;;;4964864;28;20387;-75
2023/01/20 05:38:32;;;;;;;22.30;11.67;;;-0.20;99.90;;;;;;4950419;28;20054;-75
2023/01/20 05:41:02;;;;;;;20.73;11.73;;;-0.10;99.90;;;;;;4956124;28;20421;-75
2023/01/20 05:43:28;;;;;;;12.10;8.63;;;-0.10;99.90;;;;;;4944793;28;20118;-75
2023/01/20 05:45:54;;;;;;;17.97;13.67;;;-0.10;99.90;;;;;;4951654;28;20134;-75
2023/01/20 05:48:20;;;;;;;22.60;14.03;;;0.00;99.90;;;;;;4964521;28;20054;-75
2023/01/20 05:50:46;;;;;;;20.80;13.47;;;0.00;99.90;;;;;;4954653;28;20035;-75
2023/01/20 05:53:12;;;;;;;23.13;15.00;;;0.00;99.90;;;;;;4945272;29;20039;-75
2023/01/20 05:55:38;;;;;;;22.43;15.53;;;0.00;99.90;;;;;;4946118;28;20701;-75
2023/01/20 05:58:04;;;;;;;28.00;14.87;;;0.10;99.90;;;;;;4952898;28;20564;-75
2023/01/20 06:00:29;;;;;;;22.70;12.63;;;0.10;99.90;;;;;;4964286;28;20050;-75
2023/01/20 06:02:55;;;;;;;41.30;18.50;;;0.10;99.90;;;;;;4963669;28;20642;-75
2023/01/20 06:05:21;;;;;;;48.80;19.90;;;0.10;99.90;;;;;;4964166;28;20054;-75
2023/01/20 06:07:48;;;;;;;39.20;19.53;;;0.20;99.90;;;;;;4949818;28;20753;-75
2023/01/20 06:10:14;;;;;;;48.70;19.37;;;0.20;99.90;;;;;;4950418;28;20047;-75
2023/01/20 06:12:40;;;;;;;42.30;17.07;;;0.20;99.90;;;;;;4951326;28;20576;-75
2023/01/20 06:15:06;;;;;;;48.67;20.33;;;0.20;99.90;;;;;;4960647;28;20121;-75
2023/01/20 06:17:31;;;;;;;24.03;15.67;;;0.20;99.90;;;;;;4964044;28;20081;-75
2023/01/20 06:19:57;;;;;;;42.53;18.73;;;0.20;99.90;;;;;;4964130;28;20070;-75
2023/01/20 06:22:23;;;;;;;30.77;19.30;;;0.30;99.90;;;;;;4952264;28;20532;-76
2023/01/20 06:24:48;;;;;;;31.37;16.33;;;0.30;99.90;;;;;;4957792;28;20049;-76
2023/01/20 06:27:14;;;;;;;30.07;17.63;;;0.30;99.90;;;;;;4964304;28;20042;-75
2023/01/20 06:29:40;;;;;;;28.13;17.23;;;0.30;99.90;;;;;;4962814;28;20172;-76
2023/01/20 06:32:05;;;;;;;39.43;19.70;;;0.30;99.90;;;;;;4946379;28;20374;-75
2023/01/20 06:34:31;;;;;;;40.67;20.57;;;0.30;99.90;;;;;;4957211;28;20046;-75
2023/01/20 06:36:57;;;;;;;41.80;24.40;;;0.30;99.90;;;;;;4944567;29;20145;-75
2023/01/20 06:39:22;;;;;;;47.80;22.53;;;0.40;99.90;;;;;;4944445;28;20055;-75
2023/01/20 06:41:48;;;;;;;33.57;20.60;;;0.40;99.90;;;;;;4927221;29;20043;-75
2023/01/20 06:44:14;;;;;;;40.23;23.83;;;0.40;99.90;;;;;;4952986;28;20047;-75
2023/01/20 06:46:40;;;;;;;39.23;21.07;;;0.40;99.90;;;;;;4961206;28;20035;-75
2023/01/20 06:49:05;;;;;;;36.77;24.20;;;0.40;99.90;;;;;;4963367;28;20108;-75
2023/01/20 06:51:32;;;;;;;58.33;24.83;;;0.40;99.90;;;;;;4959382;28;20057;-75
2023/01/20 06:53:58;;;;;;;42.83;24.13;;;0.40;99.90;;;;;;4960670;28;20058;-75
2023/01/20 06:56:24;;;;;;;64.97;27.73;;;0.50;99.90;;;;;;4963761;28;20053;-75
2023/01/20 06:58:50;;;;;;;40.37;23.33;;;0.50;99.90;;;;;;4958231;28;20050;-77
2023/01/20 07:01:22;;;;;;;53.80;26.73;;;0.50;99.90;;;;;;4944660;28;20085;-79
2023/01/20 07:03:47;;;;;;;50.50;28.77;;;0.50;99.90;;;;;;4947366;28;20039;-80
2023/01/20 07:06:27;;;;;;;48.37;28.03;;;0.50;99.90;;;;;;4961932;28;20597;-76
2023/01/20 07:08:53;;;;;;;52.30;25.70;;;0.50;99.90;;;;;;4950877;28;20436;-78
2023/01/20 07:11:19;;;;;;;52.13;27.50;;;0.60;99.90;;;;;;4949289;28;20460;-77
2023/01/20 07:13:44;;;;;;;55.53;28.60;;;0.60;99.90;;;;;;4957139;28;20039;-77
2023/01/20 07:16:11;;;;;;;72.03;30.10;;;0.60;99.90;;;;;;4959449;28;20051;-77
2023/01/20 07:18:37;;;;;;;42.57;25.93;;;0.60;99.90;;;;;;4955417;28;20035;-76
2023/01/20 07:21:04;;;;;;;57.30;27.00;;;0.60;99.90;;;;;;4953657;28;20062;-76
2023/01/20 07:23:32;;;;;;;60.97;32.13;;;0.60;99.90;;;;;;4953328;28;20039;-76
2023/01/20 07:26:04;;;;;;;57.57;30.50;;;0.70;99.90;;;;;;4953149;28;20097;-77
2023/01/20 07:28:30;;;;;;;58.35;31.38;;;0.70;99.90;;;;;;4960710;28;20042;-78
2023/01/20 07:31:05;;;;;;;61.20;31.70;;;0.70;99.90;;;;;;4952735;28;20057;-76
2023/01/20 07:33:31;;;;;;;66.10;32.13;;;0.70;99.90;;;;;;4959627;28;20047;-76
2023/01/20 07:35:57;;;;;;;57.53;30.63;;;0.70;99.90;;;;;;4944398;28;20047;-79
2023/01/20 07:38:23;;;;;;;51.53;31.87;;;0.70;99.90;;;;;;4945606;28;20034;-75
2023/01/20 07:40:49;;;;;;;57.00;33.70;;;0.70;99.90;;;;;;4928604;28;20161;-76
2023/01/20 07:43:14;;;;;;;58.73;31.47;;;0.70;99.90;;;;;;4959707;28;20035;-75
2023/01/20 07:45:40;;;;;;;59.63;32.33;;;0.80;99.90;;;;;;4956857;28;20035;-75
2023/01/20 07:48:06;;;;;;;62.03;31.13;;;0.80;99.90;;;;;;4939014;28;20047;-78
2023/01/20 07:50:36;;;;;;;59.13;30.43;;;0.80;99.90;;;;;;4947219;28;20043;-77
2023/01/20 07:53:02;;;;;;;57.03;30.30;;;0.80;99.90;;;;;;4959465;28;20050;-77
2023/01/20 07:55:28;;;;;;;59.57;32.37;;;0.80;99.90;;;;;;4940600;28;20043;-77
2023/01/20 07:57:55;;;;;;;58.27;29.97;;;0.80;99.90;;;;;;4956529;28;20421;-79
2023/01/20 08:00:21;;;;;;;62.87;33.77;;;0.80;99.90;;;;;;4956495;28;20432;-78
2023/01/20 08:02:47;;;;;;;67.90;30.20;;;0.90;99.90;;;;;;4968700;28;20039;-78
2023/01/20 08:05:12;;;;;;;70.13;31.63;;;0.90;99.90;;;;;;4946849;28;20119;-77
2023/01/20 08:07:38;;;;;;;51.23;30.97;;;0.90;99.90;;;;;;4944819;28;20043;-79
2023/01/20 08:10:04;;;;;;;59.73;28.07;;;0.90;99.90;;;;;;4959754;28;20043;-79
2023/01/20 08:12:29;;;;;;;57.33;29.53;;;0.90;99.90;;;;;;4955549;28;20046;-80
2023/01/20 08:14:55;;;;;;;60.53;31.70;;;0.90;99.90;;;;;;4938444;28;20054;-79
2023/01/20 08:17:21;;;;;;;63.43;31.87;;;0.90;99.90;;;;;;4946732;28;20077;-80
2023/01/20 08:19:46;;;;;;;58.20;33.50;;;0.90;99.90;;;;;;4955944;28;20047;-77
2023/01/20 08:22:12;;;;;;;60.63;31.37;;;0.90;99.90;;;;;;4955328;28;20031;-80
2023/01/20 08:24:38;;;;;;;51.30;29.77;;;1.00;99.90;;;;;;4941581;28;20049;-80
2023/01/20 08:27:03;;;;;;;58.70;30.47;;;1.00;99.90;;;;;;4952007;28;20446;-80
2023/01/20 08:29:30;;;;;;;60.57;29.57;;;0.90;99.90;;;;;;4945012;28;20127;-78
2023/01/20 08:31:58;;;;;;;75.50;30.00;;;1.00;99.90;;;;;;4946753;28;20082;-77
2023/01/20 08:34:24;;;;;;;57.03;28.27;;;1.00;99.90;;;;;;4953269;28;20417;-77
2023/01/20 08:36:52;;;;;;;54.53;24.83;;;1.00;99.90;;;;;;4957027;28;20039;-77
2023/01/20 08:39:19;;;;;;;52.23;28.27;;;1.00;99.90;;;;;;4956097;28;20401;-77
2023/01/20 08:41:46;;;;;;;63.87;30.10;;;1.00;99.90;;;;;;4952277;28;20070;-77
2023/01/20 08:44:12;;;;;;;57.27;30.37;;;1.00;99.90;;;;;;4956040;28;20039;-77
2023/01/20 08:46:38;;;;;;;58.83;30.13;;;1.00;99.90;;;;;;4954736;28;20856;-77
2023/01/20 08:49:12;;;;;;;61.87;31.33;;;1.00;99.90;;;;;;4955434;28;20590;-77
2023/01/20 08:51:38;;;;;;;57.33;29.77;;;1.00;99.90;;;;;;4952371;28;20086;-78
2023/01/20 08:54:04;;;;;;;58.43;32.20;;;1.10;99.90;;;;;;4959941;28;20557;-77
2023/01/20 08:56:30;;;;;;;52.23;27.70;;;1.10;99.90;;;;;;4957784;28;20034;-77
2023/01/20 08:58:56;;;;;;;59.50;28.63;;;1.10;99.90;;;;;;4940450;28;20081;-77
2023/01/20 09:01:25;;;;;;;61.03;31.77;;;1.10;99.90;;;;;;4962664;28;20650;-77
2023/01/20 09:03:52;;;;;;;51.23;27.67;;;1.10;99.90;;;;;;4950259;28;20040;-77
2023/01/20 09:06:18;;;;;;;63.23;30.30;;;1.10;99.90;;;;;;4930015;29;20453;-77
2023/01/20 09:08:44;;;;;;;56.37;28.27;;;1.10;99.90;;;;;;4935747;28;20517;-77
2023/01/20 09:11:18;;;;;;;55.00;29.40;;;1.10;99.90;;;;;;4940601;29;20051;-77
2023/01/20 09:13:44;;;;;;;70.77;31.23;;;1.10;99.90;;;;;;4932380;28;20055;-77
2023/01/20 09:16:15;;;;;;;72.60;31.17;;;1.10;99.90;;;;;;4940680;28;20414;-77
2023/01/20 09:18:40;;;;;;;71.37;31.43;;;1.20;99.90;;;;;;4935441;28;20048;-78
2023/01/20 09:21:06;;;;;;;62.10;28.90;;;1.20;99.90;;;;;;5001210;28;20046;-80
2023/01/20 09:23:37;;;;;;;73.07;29.83;;;1.20;99.90;;;;;;4933274;29;20040;-78
2023/01/20 09:26:04;;;;;;;63.47;30.83;;;1.20;99.90;;;;;;4954642;28;20044;-79
2023/01/20 09:28:30;;;;;;;56.70;31.70;;;1.20;99.90;;;;;;5005521;28;20043;-79
2023/01/20 09:31:07;;;;;;;86.10;35.20;;;1.20;99.90;;;;;;4928629;28;20128;-78
2023/01/20 09:33:36;;;;;;;70.60;30.57;;;1.30;99.90;;;;;;4999703;28;20130;-79
2023/01/20 09:36:04;;;;;;;64.17;29.07;;;1.20;99.90;;;;;;4925673;29;20055;-78
2023/01/20 09:44:32;;;;;;;52.50;29.30;;;1.30;99.90;;;;;;4938164;28;20108;-78
2023/01/20 09:47:20;;;;;;;51.13;26.47;;;1.30;99.90;;;;;;4937696;29;20048;-79
2023/01/20 09:55:41;;;;;;;49.10;29.83;;;1.40;99.90;;;;;;4939570;28;20122;-79
2023/01/20 09:58:22;;;;;;;64.30;30.40;;;1.30;99.90;;;;;;4924672;28;20043;-78
2023/01/20 10:00:59;;;;;;;48.93;26.83;;;1.40;99.90;;;;;;4933352;28;20070;-78
2023/01/20 10:03:45;;;;;;;63.17;31.43;;;1.40;99.90;;;;;;5007492;28;20039;-79
2023/01/20 10:06:28;;;;;;;52.53;28.07;;;1.40;99.90;;;;;;4923407;28;20055;-78
2023/01/20 10:09:03;;;;;;;54.83;33.77;;;1.40;99.90;;;;;;4928275;29;20398;-78
2023/01/20 10:11:33;;;;;;;71.37;33.27;;;1.40;99.90;;;;;;4936485;28;20039;-79
2023/01/20 10:14:14;;;;;;;62.17;28.07;;;1.40;99.90;;;;;;4923453;28;20398;-78
2023/01/20 10:16:44;;;;;;;55.20;27.53;;;1.40;99.90;;;;;;4924338;29;20052;-79
2023/01/20 10:19:17;;;;;;;48.20;28.10;;;1.50;99.90;;;;;;4925944;29;20653;-77
2023/01/20 10:22:08;;;;;;;71.00;33.00;;;1.50;99.90;;;;;;4935108;29;20066;-78
2023/01/20 10:24:56;;;;;;;56.40;28.73;;;1.50;99.90;;;;;;4943319;28;20146;-79
2023/01/20 10:27:25;;;;;;;48.97;27.13;;;1.50;99.90;;;;;;4930703;29;20031;-78
2023/01/20 10:29:57;;;;;;;55.63;29.40;;;1.50;99.90;;;;;;4938660;29;20039;-79
2023/01/20 10:32:46;;;;;;;54.33;25.95;;;1.60;99.90;;;;;;4934854;29;20090;-77
2023/01/20 10:35:19;;;;;;;57.27;28.83;;;1.60;99.90;;;;;;4924710;29;20062;-79
2023/01/20 10:37:45;;;;;;;49.90;25.17;;;1.60;99.90;;;;;;4937125;28;20069;-78
2023/01/20 10:40:29;;;;;;;52.83;30.03;;;1.60;99.90;;;;;;4932746;29;20039;-78
2023/01/20 10:42:57;;;;;;;49.57;27.93;;;1.60;99.90;;;;;;4917881;28;20058;-77
2023/01/20 10:45:43;;;;;;;63.40;27.23;;;1.70;99.90;;;;;;4926772;28;20043;-77
2023/01/20 10:48:29;;;;;;;55.00;26.53;;;1.70;99.90;;;;;;4913930;29;20043;-77
2023/01/20 10:50:58;;;;;;;54.63;29.03;;;1.70;99.90;;;;;;4935882;29;20462;-76
2023/01/20 10:54:09;;;;;;;46.53;24.93;;;1.70;99.90;;;;;;4926975;28;20059;-78
2023/01/20 10:56:52;;;;;;;51.33;24.93;;;1.80;99.90;;;;;;4922421;29;20131;-78
2023/01/20 10:59:22;;;;;;;54.50;27.37;;;1.80;99.90;;;;;;4919501;29;20046;-78
2023/01/20 11:01:51;;;;;;;38.23;24.20;;;1.80;99.90;;;;;;4938867;29;20184;-78
2023/01/20 11:04:19;;;;;;;47.50;23.27;;;1.80;99.90;;;;;;4940976;28;20494;-77
2023/01/20 11:06:50;;;;;;;45.13;23.07;;;1.80;99.90;;;;;;4942177;29;20046;-77
2023/01/20 11:09:31;;;;;;;50.10;27.53;;;1.80;99.90;;;;;;4939741;29;20464;-77
2023/01/20 11:11:58;;;;;;;60.03;24.57;;;1.80;99.90;;;;;;4924971;28;20189;-78
2023/01/20 11:14:24;;;;;;;58.73;26.50;;;1.90;99.90;;;;;;4924016;28;20086;-78
2023/01/20 11:16:55;;;;;;;49.93;24.77;;;1.90;99.90;;;;;;4942631;29;20074;-78
2023/01/20 11:19:21;;;;;;;52.28;25.40;;;1.90;99.90;;;;;;4928463;28;20043;-79
2023/01/20 11:21:47;;;;;;;48.20;22.53;;;2.00;99.90;;;;;;4932400;28;20494;-81
2023/01/20 11:24:41;;;;;;;35.47;22.57;;;1.90;99.90;;;;;;4941745;29;20060;-78
2023/01/20 11:27:13;;;;;;;40.77;22.13;;;2.00;99.90;;;;;;4922220;28;20043;-79
2023/01/20 11:29:43;;;;;;;47.55;24.15;;;2.00;99.90;;;;;;4927116;28;20055;-77
2023/01/20 11:32:33;;;;;;;41.30;21.53;;;2.00;99.90;;;;;;4928497;28;20112;-78
2023/01/20 11:35:16;;;;;;;34.20;23.83;;;2.00;99.90;;;;;;4942956;28;20138;-77
2023/01/20 11:37:42;;;;;;;45.17;23.67;;;2.00;99.90;;;;;;4913323;28;20463;-78
2023/01/20 11:40:24;;;;;;;34.33;21.13;;;2.00;99.90;;;;;;4933211;28;20050;-78
2023/01/20 11:42:51;;;;;;;49.50;24.38;;;2.10;99.90;;;;;;4935260;28;20070;-77
2023/01/20 11:45:28;;;;;;;46.30;20.07;;;2.10;99.90;;;;;;4929236;28;20088;-77
2023/01/20 11:48:02;;;;;;;55.83;23.23;;;2.10;99.90;;;;;;4924803;28;20083;-78
2023/01/20 11:50:56;;;;;;;32.93;18.87;;;2.10;99.90;;;;;;4917961;28;20044;-79
2023/01/20 11:53:32;;;;;;;49.57;22.07;;;2.10;99.90;;;;;;4938985;29;20047;-78
2023/01/20 11:56:01;;;;;;;42.17;22.43;;;2.10;99.90;;;;;;4936289;28;20046;-78
2023/01/20 11:58:49;;;;;;;49.23;21.50;;;2.20;99.90;;;;;;4926623;28;20039;-76
2023/01/20 12:01:26;;;;;;;40.87;20.43;;;2.20;99.90;;;;;;4951758;28;20050;-79
2023/01/20 12:04:16;;;;;;;33.77;19.37;;;2.20;99.90;;;;;;4933995;29;20237;-78
2023/01/20 12:06:57;;;;;;;29.97;19.37;;;2.20;99.90;;;;;;4941775;29;20046;-79
2023/01/20 12:09:30;;;;;;;42.03;23.70;;;2.20;99.90;;;;;;4931912;29;20479;-78
2023/01/20 12:12:01;;;;;;;36.27;21.50;;;2.20;99.90;;;;;;4942068;28;20043;-78
2023/01/20 12:14:32;;;;;;;37.30;21.80;;;2.20;99.90;;;;;;4919909;28;20064;-78
2023/01/20 12:17:14;;;;;;;42.07;23.40;;;2.20;99.90;;;;;;4937682;29;20046;-76
2023/01/20 12:19:56;;;;;;;35.08;20.02;;;2.20;99.90;;;;;;4938830;29;20046;-78
2023/01/20 12:22:32;;;;;;;38.90;18.48;;;2.30;99.90;;;;;;4941673;29;20047;-78
2023/01/20 12:25:09;;;;;;;33.93;19.07;;;2.30;99.90;;;;;;4941285;28;20387;-78
2023/01/20 12:27:47;;;;;;;35.37;22.60;;;2.30;99.90;;;;;;4938775;28;20035;-78
2023/01/20 12:30:35;;;;;;;36.77;16.63;;;2.30;99.90;;;;;;4941802;29;20093;-78
2023/01/20 12:33:01;;;;;;;47.10;21.83;;;2.30;99.90;;;;;;4941709;28;20084;-78
2023/01/20 12:35:32;;;;;;;37.47;20.23;;;2.30;99.90;;;;;;4941129;28;20453;-78
2023/01/20 12:38:07;;;;;;;35.40;20.37;;;2.30;99.90;;;;;;4924533;29;20047;-77
2023/01/20 12:40:49;;;;;;;30.17;17.70;;;2.30;99.90;;;;;;4941323;28;20054;-78
2023/01/20 12:43:50;;;;;;;30.45;18.80;;;2.40;99.90;;;;;;4922511;29;20508;-78
2023/01/20 12:46:35;;;;;;;35.93;17.33;;;2.30;99.90;;;;;;4941709;28;20451;-77
2023/01/20 12:49:09;;;;;;;32.03;17.13;;;2.40;99.90;;;;;;4941862;29;20058;-78
2023/01/20 12:51:56;;;;;;;42.43;19.50;;;2.40;99.90;;;;;;4918024;29;20032;-77
2023/01/20 12:54:50;;;;;;;26.50;15.13;;;2.40;99.90;;;;;;4921230;28;20051;-77
2023/01/20 12:57:53;;;;;;;30.97;19.27;;;2.40;99.90;;;;;;4921603;29;20109;-78
2023/01/20 13:00:45;;;;;;;32.58;15.25;;;2.40;99.90;;;;;;4922693;28;20083;-77
2023/01/20 13:03:46;;;;;;;33.90;17.55;;;2.40;99.90;;;;;;4939207;28;20043;-78
2023/01/20 13:06:53;;;;;;;33.00;18.33;;;2.40;99.90;;;;;;4922616;29;20059;-76
2023/01/20 13:09:43;;;;;;;29.40;16.17;;;2.40;99.90;;;;;;4960293;28;20051;-77
2023/01/20 13:12:36;;;;;;;33.77;16.97;;;2.40;99.90;;;;;;4960086;28;20098;-77
2023/01/20 13:15:40;;;;;;;28.90;14.07;;;2.40;99.90;;;;;;4944465;28;20086;-78